Time;durP1;ratioP1;P1;durP2;ratioP2;P2;SDS_P1;SDS_P2;PMS_P1;PMS_P2;Temp;Humidity;BMP_temperature;BMP_pressure;BME280_temperature;BME280_humidity;BME280_pressure;Samples;Min_cycle;Max_cycle;Signal;HPM_P1;HPM_P2
2021/11/15 00:00:13;;;;;;;18.33;14.47;;;;;;;9.26;67.81;102411.41;2057438;28;20609;-61
2021/11/15 00:01:15;;;;;;;19.25;14.30;;;;;;;9.29;67.94;102419.75;2057493;28;20198;-62
2021/11/15 00:02:16;;;;;;;18.30;14.50;;;;;;;8.77;67.71;102336.25;2057657;28;20244;-61
2021/11/15 00:03:18;;;;;;;19.33;14.70;;;;;;;9.26;67.79;102417.75;2057643;28;20419;-61
2021/11/15 00:04:20;;;;;;;19.73;14.90;;;;;;;9.24;68.13;102413.75;2056883;28;20190;-61
2021/11/15 00:05:21;;;;;;;18.97;14.70;;;;;;;9.24;67.98;102416.53;2057662;28;20433;-61
2021/11/15 00:06:21;;;;;;;18.53;14.57;;;;;;;9.27;68.02;102413.00;2057447;28;20512;-62
2021/11/15 00:07:22;;;;;;;19.83;14.10;;;;;;;9.25;68.02;102418.13;2057636;28;20184;-61
2021/11/15 00:08:22;;;;;;;18.23;14.80;;;;;;;9.23;68.26;102412.97;2057360;28;20269;-61
2021/11/15 00:09:23;;;;;;;19.77;15.00;;;;;;;9.12;68.33;102384.41;2057529;28;20230;-61
2021/11/15 00:10:23;;;;;;;19.93;15.03;;;;;;;9.25;68.43;102418.13;2057493;28;20317;-61
2021/11/15 00:11:26;;;;;;;19.77;15.20;;;;;;;9.24;68.33;102406.28;2057410;28;20208;-61
2021/11/15 00:12:26;;;;;;;19.27;15.47;;;;;;;9.24;68.21;102411.00;2057404;28;20192;-61
2021/11/15 00:13:27;;;;;;;21.60;16.10;;;;;;;9.19;68.25;102409.38;2057633;28;20424;-62
2021/11/15 00:14:27;;;;;;;24.20;16.17;;;;;;;9.18;68.42;102409.75;2056878;28;20189;-61
2021/11/15 00:15:33;;;;;;;20.97;15.47;;;;;;;9.20;68.11;102410.97;2057557;28;20185;-61
2021/11/15 00:16:33;;;;;;;21.27;15.67;;;;;;;9.23;68.14;102417.72;2057441;28;20173;-61
2021/11/15 00:17:34;;;;;;;22.73;16.00;;;;;;;9.19;68.10;102408.56;2057562;28;20413;-61
2021/11/15 00:18:34;;;;;;;22.20;16.50;;;;;;;9.18;68.29;102416.06;2057308;28;20216;-61
2021/11/15 00:19:34;;;;;;;21.57;16.20;;;;;;;9.14;68.43;102409.72;2057573;28;20648;-62
2021/11/15 00:20:37;;;;;;;20.23;15.70;;;;;;;9.14;68.52;102406.97;2057350;28;20172;-61
2021/11/15 00:21:37;;;;;;;19.93;15.30;;;;;;;9.02;68.75;102389.84;2057336;28;20643;-61
2021/11/15 00:22:38;;;;;;;21.50;15.80;;;;;;;9.18;68.66;102415.28;2057444;28;20796;-61
2021/11/15 00:23:39;;;;;;;19.17;15.50;;;;;;;9.20;68.64;102415.69;2057533;28;20208;-61
2021/11/15 00:24:39;;;;;;;21.93;15.63;;;;;;;9.23;68.25;102415.72;2056693;28;20621;-61
2021/11/15 00:25:40;;;;;;;22.53;16.60;;;;;;;9.22;68.37;102408.59;2057654;28;20204;-61
2021/11/15 00:26:40;;;;;;;21.77;15.47;;;;;;;9.19;68.33;102403.03;2057330;28;20193;-61
2021/11/15 00:27:41;;;;;;;21.57;15.80;;;;;;;9.27;68.31;102404.72;2057500;28;20256;-61
2021/11/15 00:28:42;;;;;;;20.50;15.93;;;;;;;9.23;68.24;102410.19;2057088;28;20186;-61
2021/11/15 00:29:42;;;;;;;22.67;16.70;;;;;;;9.21;68.52;102407.03;2057283;28;20211;-61
2021/11/15 00:30:42;;;;;;;23.63;16.57;;;;;;;9.23;68.38;102406.66;2057349;28;20176;-61
2021/11/15 00:31:44;;;;;;;20.67;15.70;;;;;;;8.90;68.41;102366.00;2057231;28;20187;-61
2021/11/15 00:32:45;;;;;;;22.47;16.10;;;;;;;9.07;68.52;102386.72;2057423;28;20151;-62
2021/11/15 00:33:45;;;;;;;21.60;15.83;;;;;;;9.17;68.31;102410.94;2057390;28;20421;-61
2021/11/15 00:34:46;;;;;;;22.67;16.77;;;;;;;9.15;68.62;102408.53;2056859;28;20166;-61
2021/11/15 00:35:46;;;;;;;25.47;17.03;;;;;;;9.16;68.21;102409.31;2057367;28;20180;-61
2021/11/15 00:36:47;;;;;;;21.03;16.20;;;;;;;9.14;68.62;102412.50;2057442;28;20154;-61
2021/11/15 00:37:48;;;;;;;23.23;16.07;;;;;;;8.76;68.68;102354.00;2057304;28;20191;-61
2021/11/15 00:38:49;;;;;;;22.73;16.25;;;;;;;9.18;68.66;102412.53;2057299;28;20299;-62
2021/11/15 00:39:50;;;;;;;22.02;16.60;;;;;;;8.61;68.60;102327.38;2057211;28;20215;-61
2021/11/15 00:40:51;;;;;;;22.03;16.57;;;;;;;8.97;68.72;102379.13;2057432;28;20167;-61
2021/11/15 00:41:52;;;;;;;20.37;16.03;;;;;;;9.17;68.71;102416.47;2057058;28;20573;-61
2021/11/15 00:42:53;;;;;;;22.90;16.00;;;;;;;9.18;68.37;102410.53;2057403;28;20203;-61
2021/11/15 00:43:54;;;;;;;23.80;15.23;;;;;;;8.76;68.34;102349.25;2057210;28;20176;-61
2021/11/15 00:44:54;;;;;;;22.07;15.73;;;;;;;9.21;68.71;102417.28;2056766;28;20501;-61
2021/11/15 00:45:55;;;;;;;22.43;16.33;;;;;;;9.18;68.70;102416.06;2056534;28;20176;-62
2021/11/15 00:46:55;;;;;;;22.67;17.03;;;;;;;9.17;68.65;102410.94;2057456;28;20260;-61
2021/11/15 00:47:56;;;;;;;22.33;16.07;;;;;;;9.15;68.59;102400.25;2057186;28;20559;-61
2021/11/15 00:48:56;;;;;;;23.40;16.30;;;;;;;9.24;68.17;102417.34;2057151;28;20189;-61
2021/11/15 00:49:57;;;;;;;23.77;16.63;;;;;;;9.24;68.39;102425.63;2057100;28;20288;-61
2021/11/15 00:50:58;;;;;;;21.33;16.10;;;;;;;9.25;68.19;102415.34;2057338;28;20642;-61
2021/11/15 00:51:59;;;;;;;22.17;16.37;;;;;;;8.88;68.03;102368.38;2056936;28;20178;-61
2021/11/15 00:52:59;;;;;;;23.40;16.30;;;;;;;9.18;68.56;102410.53;2057312;28;20413;-61
2021/11/15 00:54:00;;;;;;;22.97;16.13;;;;;;;9.18;68.33;102418.06;2057103;28;20196;-61
2021/11/15 00:55:01;;;;;;;23.93;16.20;;;;;;;8.72;68.40;102350.41;2056620;28;20181;-61
2021/11/15 00:56:02;;;;;;;21.63;16.50;;;;;;;9.13;68.74;102412.88;2057140;28;20497;-61
2021/11/15 00:57:04;;;;;;;20.57;15.87;;;;;;;9.13;68.92;102416.41;2057241;28;20174;-61
2021/11/15 00:58:06;;;;;;;24.37;16.23;;;;;;;8.99;68.42;102390.59;2057156;28;20644;-61
2021/11/15 00:59:06;;;;;;;21.92;16.70;;;;;;;9.18;68.27;102420.81;2057083;28;20506;-61
2021/11/15 01:00:10;;;;;;;24.50;16.80;;;;;;;9.01;68.48;102382.69;2056308;28;20198;-61
2021/11/15 01:01:10;;;;;;;20.65;16.08;;;;;;;9.21;68.23;102415.31;2056683;28;20739;-61
2021/11/15 01:02:11;;;;;;;21.57;15.97;;;;;;;9.21;68.27;102415.31;2056964;28;20593;-61
2021/11/15 01:03:13;;;;;;;20.43;15.20;;;;;;;9.19;68.43;102414.91;2057238;28;20180;-61
2021/11/15 01:04:14;;;;;;;24.70;16.55;;;;;;;9.15;68.00;102399.44;2056496;28;20186;-61
2021/11/15 01:05:15;;;;;;;22.17;16.23;;;;;;;9.21;68.61;102417.28;2057271;28;20202;-61
2021/11/15 01:06:16;;;;;;;20.00;15.30;;;;;;;9.21;68.40;102411.75;2057049;28;20221;-61
2021/11/15 01:07:16;;;;;;;24.03;16.47;;;;;;;9.05;68.60;102397.34;2057239;28;20469;-61
2021/11/15 01:08:17;;;;;;;22.90;16.17;;;;;;;9.18;69.01;102429.91;2057100;28;20441;-61
2021/11/15 01:09:18;;;;;;;21.88;16.02;;;;;;;9.23;68.46;102420.47;2057002;28;20559;-61
2021/11/15 01:10:20;;;;;;;25.10;16.60;;;;;;;9.25;68.52;102415.34;2057137;28;20184;-61
2021/11/15 01:11:21;;;;;;;21.92;16.05;;;;;;;9.24;68.50;102411.81;2057150;28;20194;-61
2021/11/15 01:12:22;;;;;;;21.40;16.23;;;;;;;9.12;68.34;102401.00;2056901;28;20655;-62
2021/11/15 01:13:24;;;;;;;22.43;15.57;;;;;;;8.81;68.34;102351.69;2057167;28;20171;-61
2021/11/15 01:14:25;;;;;;;22.92;16.77;;;;;;;9.18;68.20;102402.22;2056397;28;20186;-61
2021/11/15 01:15:28;;;;;;;21.60;15.87;;;;;;;9.23;68.53;102412.19;2057139;28;20205;-62
2021/11/15 01:16:29;;;;;;;23.52;17.30;;;;;;;9.22;68.34;102413.34;2057057;28;20583;-61
2021/11/15 01:17:29;;;;;;;21.10;15.87;;;;;;;9.21;68.69;102415.31;2057320;28;20167;-61
2021/11/15 01:18:29;;;;;;;22.97;16.57;;;;;;;9.24;68.62;102411.00;2056707;28;20219;-62
2021/11/15 01:19:30;;;;;;;21.03;15.67;;;;;;;9.27;68.49;102404.72;2057145;28;20180;-61
2021/11/15 01:20:33;;;;;;;22.87;16.60;;;;;;;9.22;68.17;102396.75;2056955;28;20185;-61
2021/11/15 01:21:33;;;;;;;23.65;16.70;;;;;;;9.27;68.29;102415.78;2056933;28;20653;-61
2021/11/15 01:22:34;;;;;;;21.40;16.37;;;;;;;9.27;68.27;102426.84;2056877;28;20675;-61
2021/11/15 01:23:36;;;;;;;24.30;17.10;;;;;;;9.26;68.20;102409.44;2057073;28;20183;-61
2021/11/15 01:24:36;;;;;;;23.58;16.98;;;;;;;9.29;68.11;102416.19;2056282;28;20182;-61
2021/11/15 01:25:38;;;;;;;23.10;17.40;;;;;;;9.29;68.19;102403.16;2057031;28;20205;-61
2021/11/15 01:26:39;;;;;;;22.00;16.40;;;;;;;9.30;68.36;102409.47;2057003;28;20483;-61
2021/11/15 01:27:40;;;;;;;22.60;16.73;;;;;;;9.32;68.39;102407.13;2056975;28;20434;-61
2021/11/15 01:28:41;;;;;;;22.33;16.50;;;;;;;8.47;68.12;102270.00;2056760;28;20195;-61
2021/11/15 01:29:42;;;;;;;22.30;16.73;;;;;;;9.30;68.17;102398.41;2056749;28;20517;-61
2021/11/15 01:30:42;;;;;;;23.60;17.80;;;;;;;9.29;68.07;102394.84;2056968;28;20240;-61
2021/11/15 01:31:43;;;;;;;23.77;17.63;;;;;;;9.32;68.01;102401.59;2056946;28;20699;-61
2021/11/15 01:32:45;;;;;;;24.13;17.37;;;;;;;9.31;68.01;102398.03;2056927;28;20677;-60
2021/11/15 01:33:46;;;;;;;23.63;17.83;;;;;;;9.31;68.31;102400.78;2056874;28;20648;-61
2021/11/15 01:34:47;;;;;;;23.50;17.37;;;;;;;9.31;68.16;102397.22;2056523;28;20918;-61
2021/11/15 01:35:47;;;;;;;22.93;16.50;;;;;;;9.33;68.07;102401.19;2056789;28;20790;-61
2021/11/15 01:36:48;;;;;;;24.33;17.07;;;;;;;9.33;67.92;102401.19;2056971;28;20255;-61
2021/11/15 01:37:49;;;;;;;23.93;16.93;;;;;;;8.93;68.12;102332.06;2056915;28;20212;-61
2021/11/15 01:38:49;;;;;;;23.97;17.47;;;;;;;9.35;68.05;102403.59;2056868;28;20186;-62
2021/11/15 01:39:50;;;;;;;23.03;17.47;;;;;;;9.36;68.17;102400.44;2056704;28;20542;-62
2021/11/15 01:40:51;;;;;;;21.33;16.07;;;;;;;9.37;67.97;102398.50;2056982;28;20214;-61
2021/11/15 01:41:52;;;;;;;22.57;16.57;;;;;;;9.37;67.85;102398.50;2057039;28;20180;-61
2021/11/15 01:42:53;;;;;;;23.40;17.40;;;;;;;9.37;67.68;102404.81;2056612;28;20201;-61
2021/11/15 01:43:54;;;;;;;22.10;16.33;;;;;;;9.24;68.00;102381.38;2056830;28;20416;-61
2021/11/15 01:44:54;;;;;;;22.70;17.07;;;;;;;9.38;67.91;102409.16;2056309;28;20614;-62
2021/11/15 01:45:56;;;;;;;22.40;17.10;;;;;;;9.36;67.88;102407.94;2056775;28;20208;-62
2021/11/15 01:46:56;;;;;;;25.45;18.30;;;;;;;9.36;67.85;102411.50;2056961;28;20177;-61
2021/11/15 01:48:00;;;;;;;23.87;17.23;;;;;;;9.36;68.07;102405.16;2056800;28;20160;-61
2021/11/15 01:49:00;;;;;;;25.50;17.42;;;;;;;9.33;68.07;102406.72;2056580;28;20173;-61
2021/11/15 01:50:03;;;;;;;23.30;17.77;;;;;;;9.32;68.21;102405.16;2056884;28;20186;-61
2021/11/15 01:51:04;;;;;;;23.13;16.93;;;;;;;9.33;68.23;102403.19;2056839;28;20216;-60
2021/11/15 01:52:05;;;;;;;22.27;18.00;;;;;;;9.27;67.43;102394.44;2056830;28;20399;-61
2021/11/15 01:53:08;;;;;;;21.47;17.07;;;;;;;9.36;67.96;102411.50;2055866;28;20285;-61
2021/11/15 01:54:09;;;;;;;24.65;17.95;;;;;;;9.37;67.71;102406.78;2055662;28;20829;-61
2021/11/15 01:55:10;;;;;;;25.73;18.73;;;;;;;9.34;67.86;102413.88;2056650;28;20171;-61
2021/11/15 01:56:11;;;;;;;27.30;17.67;;;;;;;9.35;67.93;102409.13;2064054;28;20206;-61
2021/11/15 01:57:13;;;;;;;23.70;18.00;;;;;;;9.36;67.86;102394.91;2063885;28;20411;-61
2021/11/15 01:58:16;;;;;;;23.90;17.70;;;;;;;9.35;67.91;102412.69;2056080;28;20161;-61
2021/11/15 01:59:18;;;;;;;29.07;19.13;;;;;;;9.33;68.04;102403.97;2056536;28;20922;-61
2021/11/15 02:00:29;;;;;;;24.70;18.13;;;;;;;9.33;68.23;102414.25;2056686;28;20500;-61
2021/11/15 02:01:30;;;;;;;26.50;18.45;;;;;;;9.31;68.18;102417.41;2056638;28;20177;-61
2021/11/15 02:02:30;;;;;;;24.77;18.03;;;;;;;9.32;68.32;102410.69;2056865;28;20260;-61
2021/11/15 02:03:32;;;;;;;26.77;18.77;;;;;;;8.98;68.06;102358.56;2056354;28;20181;-61
2021/11/15 02:04:33;;;;;;;29.77;20.13;;;;;;;9.34;68.01;102413.06;2056059;28;20201;-61
2021/11/15 02:05:33;;;;;;;26.83;19.67;;;;;;;9.35;68.35;102414.66;2056669;28;20259;-62
2021/11/15 02:06:35;;;;;;;28.17;19.37;;;;;;;9.25;68.05;102393.22;2056564;28;20704;-61
2021/11/15 02:07:36;;;;;;;28.67;19.97;;;;;;;8.76;68.16;102310.56;2056720;28;20185;-61
2021/11/15 02:08:37;;;;;;;26.77;18.33;;;;;;;9.40;68.36;102425.38;2056457;28;20422;-62
2021/11/15 02:09:38;;;;;;;30.27;20.30;;;;;;;9.33;68.36;102403.97;2056547;28;20174;-61
2021/11/15 02:10:38;;;;;;;31.10;20.00;;;;;;;9.24;68.31;102386.91;2056715;28;20481;-61
2021/11/15 02:11:39;;;;;;;31.60;20.30;;;;;;;9.40;68.17;102409.59;2056621;28;20660;-61
2021/11/15 02:12:42;;;;;;;30.63;19.57;;;;;;;9.40;68.33;102409.59;2056636;28;20233;-62
2021/11/15 02:13:44;;;;;;;30.00;20.67;;;;;;;9.40;68.55;102406.81;2056533;28;20528;-61
2021/11/15 02:14:44;;;;;;;30.70;20.23;;;;;;;9.37;68.48;102401.25;2056006;28;20418;-61
2021/11/15 02:15:46;;;;;;;28.03;19.40;;;;;;;9.37;68.26;102401.25;2056550;28;20403;-61
2021/11/15 02:16:47;;;;;;;31.40;20.60;;;;;;;9.30;68.51;102398.41;2056730;28;20228;-61
2021/11/15 02:17:49;;;;;;;31.33;19.77;;;;;;;9.35;68.54;102403.59;2056571;28;20438;-61
2021/11/15 02:18:49;;;;;;;35.03;20.57;;;;;;;9.37;68.77;102407.56;2056481;28;20186;-61
2021/11/15 02:19:51;;;;;;;32.77;20.50;;;;;;;9.38;68.33;102400.06;2056451;28;20411;-61
2021/11/15 02:21:00;;;;;;;33.53;20.87;;;;;;;9.39;68.44;102396.13;2056604;28;20662;-61
2021/11/15 02:22:01;;;;;;;32.90;20.53;;;;;;;9.02;68.42;102337.28;2063817;28;20425;-61
2021/11/15 02:23:01;;;;;;;32.87;21.00;;;;;;;9.39;68.62;102407.97;2064094;28;20425;-61
2021/11/15 02:24:02;;;;;;;36.37;22.80;;;;;;;9.39;68.79;102409.97;2056392;28;20542;-61
2021/11/15 02:25:06;;;;;;;37.23;22.07;;;;;;;9.39;68.72;102405.19;2056178;28;20209;-61
2021/11/15 02:26:09;;;;;;;35.17;22.33;;;;;;;9.38;68.63;102403.63;2056490;28;20653;-61
2021/11/15 02:27:10;;;;;;;34.50;21.77;;;;;;;9.35;68.39;102409.94;2056551;28;20417;-61
2021/11/15 02:28:11;;;;;;;36.27;20.83;;;;;;;9.35;68.65;102412.69;2056414;28;20474;-61
2021/11/15 02:29:11;;;;;;;32.83;22.00;;;;;;;9.33;68.74;102415.03;2056554;28;20410;-61
2021/11/15 02:30:18;;;;;;;36.07;21.30;;;;;;;9.34;68.58;102413.06;2056574;28;20174;-61
2021/11/15 02:31:23;;;;;;;32.17;20.43;;;;;;;9.31;68.69;102417.41;2056607;28;20174;-61
2021/11/15 02:32:26;;;;;;;34.37;22.33;;;;;;;9.30;68.97;102424.09;2056517;28;20903;-61
2021/11/15 02:33:30;;;;;;;34.17;21.40;;;;;;;9.34;68.73;102408.34;2056264;28;20935;-61
2021/11/15 02:34:31;;;;;;;36.40;21.70;;;;;;;9.35;68.71;102414.66;2055851;28;20413;-62
2021/11/15 02:35:32;;;;;;;34.93;21.03;;;;;;;8.72;68.81;102323.53;2056676;28;20455;-61
2021/11/15 02:36:33;;;;;;;34.63;21.77;;;;;;;9.33;68.95;102414.25;2056331;28;20683;-61
2021/11/15 02:37:33;;;;;;;36.55;22.08;;;;;;;9.30;68.81;102420.53;2056548;28;20176;-61
2021/11/15 02:38:36;;;;;;;33.30;21.17;;;;;;;9.28;68.94;102425.66;2056188;28;20196;-61
2021/11/15 02:39:36;;;;;;;35.58;23.60;;;;;;;9.27;68.59;102416.56;2056485;28;20258;-61
2021/11/15 02:40:37;;;;;;;38.17;22.40;;;;;;;9.28;68.82;102420.13;2056397;28;20170;-61
2021/11/15 02:41:38;;;;;;;39.57;22.77;;;;;;;9.26;69.00;102428.81;2056571;28;20184;-61
2021/11/15 02:42:38;;;;;;;41.10;24.47;;;;;;;9.08;68.87;102400.16;2056414;28;20210;-61
2021/11/15 02:43:39;;;;;;;41.93;23.70;;;;;;;9.24;69.23;102424.81;2055917;28;20234;-61
2021/11/15 02:44:40;;;;;;;37.57;22.47;;;;;;;9.26;69.25;102423.28;2055021;28;20247;-61
2021/11/15 02:45:40;;;;;;;39.50;22.70;;;;;;;9.26;69.21;102426.03;2056482;28;20240;-61
2021/11/15 02:46:41;;;;;;;35.43;22.83;;;;;;;9.25;69.09;102420.88;2056495;28;20219;-61
2021/11/15 02:47:41;;;;;;;38.07;23.27;;;;;;;9.22;69.41;102422.44;2056568;28;20211;-62
2021/11/15 02:48:42;;;;;;;34.80;22.40;;;;;;;8.61;69.64;102324.63;2056224;28;20258;-61
2021/11/15 02:49:43;;;;;;;41.30;23.13;;;;;;;9.24;69.30;102422.88;2056238;28;20234;-61
2021/11/15 02:50:43;;;;;;;41.47;23.43;;;;;;;9.14;69.70;102415.25;2056472;28;20205;-61
2021/11/15 02:51:44;;;;;;;40.10;23.07;;;;;;;9.09;69.95;102415.59;2056381;28;20185;-61
2021/11/15 02:52:48;;;;;;;36.97;23.70;;;;;;;9.13;70.03;102415.63;2056597;28;20173;-61
2021/11/15 02:53:48;;;;;;;45.13;24.57;;;;;;;9.14;70.04;102417.22;2056168;28;20174;-61
2021/11/15 02:54:49;;;;;;;43.20;24.47;;;;;;;9.09;69.82;102421.13;2055764;28;20521;-61
2021/11/15 02:55:50;;;;;;;42.13;24.67;;;;;;;9.03;70.00;102413.53;2056364;28;20265;-61
2021/11/15 02:56:51;;;;;;;44.30;24.53;;;;;;;9.05;70.13;102420.28;2056436;28;20942;-61
2021/11/15 02:57:53;;;;;;;41.27;24.97;;;;;;;9.07;70.02;102422.69;2056293;28;20632;-61
2021/11/15 02:58:54;;;;;;;40.83;23.83;;;;;;;9.08;69.77;102440.88;2056302;28;20391;-61
2021/11/15 02:59:54;;;;;;;48.13;25.40;;;;;;;9.11;70.04;102417.97;2056235;28;21025;-61
2021/11/15 03:00:59;;;;;;;45.13;24.30;;;;;;;9.08;70.03;102416.75;2056600;28;20159;-61
2021/11/15 03:01:59;;;;;;;43.80;24.97;;;;;;;8.96;69.89;102399.66;2056344;28;20243;-61
2021/11/15 03:03:00;;;;;;;43.63;24.87;;;;;;;8.32;70.20;102303.34;2056468;28;20472;-61
2021/11/15 03:04:01;;;;;;;42.33;24.70;;;;;;;9.05;70.13;102411.19;2055874;28;20213;-61
2021/11/15 03:05:01;;;;;;;47.60;25.63;;;;;;;9.05;70.30;102413.94;2055925;28;20262;-61
2021/11/15 03:06:03;;;;;;;45.03;25.00;;;;;;;9.03;70.08;102414.31;2056213;28;20261;-61
2021/11/15 03:07:04;;;;;;;41.27;24.30;;;;;;;8.93;70.14;102412.25;2056381;28;20179;-61
2021/11/15 03:08:07;;;;;;;45.53;24.63;;;;;;;8.39;70.50;102333.81;2056270;28;20426;-61
2021/11/15 03:09:07;;;;;;;48.40;26.87;;;;;;;8.97;70.66;102426.13;2055776;28;20402;-61
2021/11/15 03:10:08;;;;;;;46.83;25.17;;;;;;;8.98;70.54;102422.97;2056222;28;20441;-61
2021/11/15 03:11:08;;;;;;;46.17;25.60;;;;;;;8.99;70.83;102421.81;2056477;28;20574;-61
2021/11/15 03:12:09;;;;;;;47.57;25.80;;;;;;;9.02;70.27;102417.50;2056390;28;20619;-61
2021/11/15 03:13:12;;;;;;;51.47;26.37;;;;;;;8.71;70.29;102374.47;2056404;28;20171;-61
2021/11/15 03:14:13;;;;;;;44.70;25.13;;;;;;;8.40;70.18;102325.16;2055575;28;20781;-61
2021/11/15 03:15:26;;;;;;;48.23;25.77;;;;;;;8.88;70.41;102401.53;2056401;28;20537;-61
2021/11/15 03:16:28;;;;;;;56.60;25.77;;;;;;;8.54;70.66;102347.44;2056231;28;20205;-61
2021/11/15 03:17:28;;;;;;;51.17;26.10;;;;;;;9.00;70.27;102417.88;2056492;28;20433;-61
2021/11/15 03:18:32;;;;;;;45.90;25.17;;;;;;;9.01;70.19;102421.41;2056050;28;20401;-61
2021/11/15 03:19:33;;;;;;;43.13;24.70;;;;;;;8.96;70.83;102419.78;2056406;28;20200;-61
2021/11/15 03:20:37;;;;;;;47.27;24.60;;;;;;;8.98;70.84;102427.72;2056143;28;20401;-61
2021/11/15 03:21:39;;;;;;;48.07;25.37;;;;;;;8.98;71.04;102422.19;2056395;28;20546;-61
2021/11/15 03:22:39;;;;;;;49.00;25.67;;;;;;;9.00;70.69;102425.34;2056247;28;20489;-61
2021/11/15 03:23:43;;;;;;;46.53;25.17;;;;;;;8.96;70.57;102421.78;2063716;28;20426;-61
2021/11/15 03:24:43;;;;;;;45.23;25.53;;;;;;;9.00;70.45;102426.16;2062574;28;20209;-62
2021/11/15 03:25:45;;;;;;;48.67;26.03;;;;;;;8.93;70.63;102417.78;2056318;28;20425;-61
2021/11/15 03:26:45;;;;;;;44.40;25.43;;;;;;;9.02;70.48;102423.03;2056392;28;20234;-61
2021/11/15 03:27:46;;;;;;;45.50;25.47;;;;;;;9.05;70.79;102428.59;2056280;28;20434;-61
2021/11/15 03:28:49;;;;;;;45.43;25.30;;;;;;;9.00;70.55;102419.81;2056136;28;20177;-61
2021/11/15 03:29:50;;;;;;;48.73;25.73;;;;;;;8.98;70.56;102427.72;2056279;28;20186;-61
2021/11/15 03:30:53;;;;;;;47.47;24.50;;;;;;;9.05;70.57;102438.84;2056262;28;20924;-61
2021/11/15 03:31:54;;;;;;;47.30;26.67;;;;;;;9.07;70.60;102436.50;2056316;28;20785;-61
2021/11/15 03:32:55;;;;;;;49.07;25.47;;;;;;;8.79;70.73;102381.69;2056346;28;20890;-61
2021/11/15 03:33:59;;;;;;;47.03;25.53;;;;;;;9.01;70.74;102422.22;2056088;28;20679;-61
2021/11/15 03:35:03;;;;;;;47.67;25.40;;;;;;;9.08;70.35;102438.09;2055412;28;20407;-62
2021/11/15 03:36:05;;;;;;;45.70;25.30;;;;;;;9.02;70.47;102423.81;2056374;28;20425;-61
2021/11/15 03:37:06;;;;;;;41.67;24.60;;;;;;;9.09;70.25;102423.09;2056237;28;20485;-61
2021/11/15 03:38:07;;;;;;;43.30;24.63;;;;;;;9.09;70.40;102428.63;2056252;28;20453;-61
2021/11/15 03:39:09;;;;;;;45.20;24.53;;;;;;;9.07;70.38;102428.22;2056069;28;20319;-62
2021/11/15 03:40:20;;;;;;;45.33;25.07;;;;;;;9.00;70.43;102434.47;2056141;28;20944;-61
2021/11/15 03:41:21;;;;;;;50.93;25.60;;;;;;;8.99;70.64;102432.88;2056271;28;20425;-61
2021/11/15 03:42:23;;;;;;;45.33;24.63;;;;;;;9.00;70.52;102436.41;2056190;28;20412;-61
2021/11/15 03:43:23;;;;;;;41.40;24.47;;;;;;;9.02;70.47;102432.09;2056252;28;20397;-62
2021/11/15 03:44:24;;;;;;;45.27;24.77;;;;;;;9.01;70.44;102436.03;2055657;28;20521;-61
2021/11/15 03:45:27;;;;;;;42.80;25.30;;;;;;;8.99;70.59;102432.06;2056005;28;20164;-61
2021/11/15 03:46:28;;;;;;;48.23;25.87;;;;;;;8.98;70.62;102431.25;2056155;28;20280;-61
2021/11/15 03:47:28;;;;;;;46.63;25.37;;;;;;;8.98;70.29;102436.78;2056264;28;20418;-61
2021/11/15 03:48:29;;;;;;;45.60;25.37;;;;;;;9.00;70.48;102436.41;2055887;28;20198;-61
2021/11/15 03:49:29;;;;;;;41.27;25.23;;;;;;;9.01;70.56;102438.00;2055999;28;20624;-61
2021/11/15 03:50:30;;;;;;;43.13;25.13;;;;;;;8.99;70.73;102437.59;2056267;28;20252;-61
2021/11/15 03:51:32;;;;;;;49.67;25.63;;;;;;;8.98;70.64;102439.56;2056235;28;20664;-61
2021/11/15 03:52:33;;;;;;;51.47;27.03;;;;;;;8.95;70.84;102439.50;2056198;28;20169;-61
2021/11/15 03:53:39;;;;;;;44.67;26.10;;;;;;;8.93;70.77;102439.09;2056239;28;20425;-61
2021/11/15 03:54:39;;;;;;;46.70;25.27;;;;;;;8.93;70.99;102444.63;2055670;28;20178;-62
2021/11/15 03:55:41;;;;;;;45.93;25.13;;;;;;;8.97;70.98;102442.72;2056040;28;20421;-61
2021/11/15 03:56:41;;;;;;;48.57;25.77;;;;;;;8.99;70.78;102446.69;2056393;28;20357;-61
2021/11/15 03:57:42;;;;;;;46.70;26.50;;;;;;;9.00;70.98;102441.94;2056200;28;20946;-61
2021/11/15 03:58:44;;;;;;;45.97;24.87;;;;;;;8.80;70.91;102407.34;2056117;28;20177;-61
2021/11/15 03:59:45;;;;;;;45.13;25.87;;;;;;;8.99;70.56;102437.59;2056072;28;20209;-61
2021/11/15 04:00:46;;;;;;;47.93;26.20;;;;;;;9.03;70.50;102443.97;2056310;28;20521;-61
2021/11/15 04:01:47;;;;;;;42.97;25.13;;;;;;;9.01;70.65;102447.09;2056156;28;20187;-61
2021/11/15 04:02:53;;;;;;;48.10;25.83;;;;;;;9.03;70.56;102441.19;2056286;28;20412;-61
2021/11/15 04:03:58;;;;;;;42.07;25.53;;;;;;;9.03;70.40;102439.22;2056198;28;20688;-61
2021/11/15 04:05:03;;;;;;;42.27;25.00;;;;;;;8.99;70.79;102445.88;2055391;28;20405;-61
2021/11/15 04:06:14;;;;;;;43.00;24.17;;;;;;;8.95;70.62;102432.03;2056082;28;20425;-61
2021/11/15 04:07:15;;;;;;;41.87;25.00;;;;;;;9.02;70.48;102443.16;2056220;28;20448;-62
2021/11/15 04:08:16;;;;;;;41.00;24.70;;;;;;;9.06;70.56;102441.22;2056138;28;20400;-61
2021/11/15 04:09:18;;;;;;;41.87;24.37;;;;;;;9.10;70.27;102432.97;2056155;28;20990;-61
2021/11/15 04:10:32;;;;;;;41.20;25.20;;;;;;;9.09;70.08;102434.16;2056093;28;20963;-61
2021/11/15 04:11:36;;;;;;;38.83;23.63;;;;;;;9.03;70.54;102438.44;2056437;28;20446;-61
2021/11/15 04:12:38;;;;;;;41.70;24.20;;;;;;;9.03;70.31;102447.50;2056110;28;20422;-61
2021/11/15 04:13:41;;;;;;;43.83;25.00;;;;;;;9.05;70.53;102439.66;2056307;28;20413;-61
2021/11/15 04:14:42;;;;;;;40.53;24.60;;;;;;;9.06;70.37;102443.19;2055484;28;20505;-61
2021/11/15 04:15:44;;;;;;;43.70;25.80;;;;;;;9.07;70.37;102440.06;2056055;28;20410;-61
2021/11/15 04:16:45;;;;;;;39.53;24.60;;;;;;;9.08;70.40;102446.38;2056207;28;20175;-61
2021/11/15 04:17:47;;;;;;;37.07;23.30;;;;;;;9.12;70.47;102447.22;2056262;28;20410;-61
2021/11/15 04:18:52;;;;;;;39.57;24.97;;;;;;;9.13;70.17;102452.38;2055869;28;20422;-61
2021/11/15 04:19:53;;;;;;;35.53;23.50;;;;;;;9.11;70.45;102448.38;2056149;28;20398;-61
2021/11/15 04:20:56;;;;;;;42.50;24.53;;;;;;;9.07;70.20;102444.81;2056280;28;20947;-61
2021/11/15 04:21:56;;;;;;;40.23;24.63;;;;;;;9.07;70.48;102458.63;2057644;28;20932;-62
2021/11/15 04:22:58;;;;;;;37.07;24.10;;;;;;;9.00;70.55;102453.00;2057679;28;20421;-61
2021/11/15 04:23:58;;;;;;;42.97;25.00;;;;;;;9.02;70.73;102456.22;2057814;28;20163;-61
2021/11/15 04:24:59;;;;;;;40.47;25.03;;;;;;;9.02;70.59;102458.97;2056955;28;20479;-61
2021/11/15 04:26:00;;;;;;;36.90;25.20;;;;;;;8.92;70.77;102430.00;2057413;28;20167;-61
2021/11/15 04:27:00;;;;;;;38.30;24.40;;;;;;;8.98;70.38;102430.47;2057515;28;20222;-61
2021/11/15 04:28:01;;;;;;;36.33;24.07;;;;;;;9.09;70.59;102454.31;2057621;28;20169;-61
2021/11/15 04:29:02;;;;;;;34.43;23.47;;;;;;;9.10;70.39;102455.09;2057351;28;20167;-61
2021/11/15 04:30:04;;;;;;;37.43;24.07;;;;;;;9.11;70.66;102443.66;2057616;28;20260;-61
2021/11/15 04:31:05;;;;;;;34.23;23.40;;;;;;;9.10;70.39;102447.59;2057487;28;20407;-61
2021/11/15 04:32:07;;;;;;;33.53;23.83;;;;;;;9.11;70.47;102451.16;2057558;28;20425;-62
2021/11/15 04:33:08;;;;;;;34.83;24.33;;;;;;;8.78;70.71;102398.66;2057534;28;20480;-61
2021/11/15 04:34:08;;;;;;;35.70;25.00;;;;;;;9.10;70.46;102458.66;2056975;28;20405;-61
2021/11/15 04:35:12;;;;;;;37.33;23.93;;;;;;;9.05;70.36;102452.66;2057596;28;20425;-61
2021/11/15 04:36:13;;;;;;;33.30;23.57;;;;;;;9.07;70.24;102453.88;2057260;28;20182;-61
2021/11/15 04:37:13;;;;;;;34.23;23.57;;;;;;;9.07;70.54;102453.88;2057491;28;20432;-61
2021/11/15 04:38:14;;;;;;;31.70;22.97;;;;;;;9.11;70.21;102456.69;2057477;28;20161;-61
2021/11/15 04:39:14;;;;;;;34.10;23.53;;;;;;;9.07;70.36;102447.56;2057400;28;20178;-61
2021/11/15 04:40:15;;;;;;;33.37;23.60;;;;;;;9.09;70.40;102450.75;2057273;28;20638;-61
2021/11/15 04:41:16;;;;;;;33.03;23.30;;;;;;;8.34;70.46;102336.91;2057563;28;20204;-61
2021/11/15 04:42:16;;;;;;;33.23;23.37;;;;;;;9.10;70.26;102455.09;2057400;28;20164;-61